Milas, Turkey
Current Conditions -  °F | °C
As of 4:50 AM on Monday 26 Jan 2015 (Local Time) from LTFE Reporting Station
Broken Clouds Broken Clouds  
Wind Chill: 46°   Ceiling: 10000
Heat Index: 48°   Visibility: 6mi
Dew Point: 46°   Wind: 5mph
Humidity: 93%   Direction: 100°E
Pressure: 30"   Gusts: NA
Location:  37.32°N, 27.77°E
Report Text: LTFE 260150Z 10004KT 050V160 9999 SCT030 BKN100 09/08 Q1016 RESHRA NOSIG
Loading
Personal Weather Stations






























Interactive Weather Map New forecast layout! Learn more

10-Day Weather Forecast

Advertisements
Track Severe Weather on mobile